Amboy, Washington
Current Conditions -  °F | °C
As of 8:53 PM on Saturday 25 Oct 2014 (Local Time) from KSPB Reporting Station
Scattered Clouds Scattered Clouds  
Wind Chill: 52°   Ceiling: Unl
Heat Index: 52°   Visibility: 10mi
Dew Point: 48°   Wind: 6mph
Humidity: 86%   Direction: 200°SSW
Pressure: 29.77"   Gusts: NA
Location:  45.91°N, 122.45°W
Report Text: KSPB 260353Z AUTO 20005KT 10SM SCT050 11/09 A2977 RMK AO2 RAB13E50 SLP081 P0003 T01110089
Loading
Personal Weather Stations






























Interactive Weather Map
Tropical Storm Tracking
New forecast layout! Learn more

10-Day Weather Forecast

Advertisements
Track Severe Weather on mobile